sensor_id;sensor_type;location;lat;lon;timestamp;P1;durP1;ratioP1;P2;durP2;ratioP2
16839;SDS011;8536;52.150;11.572;2022-11-15T00:00:29;15.40;;;11.37;;
16839;SDS011;8536;52.150;11.572;2022-11-15T00:02:56;15.27;;;10.80;;
16839;SDS011;8536;52.150;11.572;2022-11-15T00:05:22;16.67;;;11.73;;
16839;SDS011;8536;52.150;11.572;2022-11-15T00:07:49;15.17;;;11.13;;
16839;SDS011;8536;52.150;11.572;2022-11-15T00:10:22;14.90;;;11.32;;
16839;SDS011;8536;52.150;11.572;2022-11-15T00:12:49;18.10;;;12.03;;
16839;SDS011;8536;52.150;11.572;2022-11-15T00:15:15;17.03;;;10.77;;
16839;SDS011;8536;52.150;11.572;2022-11-15T00:17:42;15.13;;;11.50;;
16839;SDS011;8536;52.150;11.572;2022-11-15T00:20:08;14.07;;;10.40;;
16839;SDS011;8536;52.150;11.572;2022-11-15T00:22:35;14.87;;;10.90;;
16839;SDS011;8536;52.150;11.572;2022-11-15T00:25:01;16.07;;;12.00;;
16839;SDS011;8536;52.150;11.572;2022-11-15T00:27:29;16.47;;;11.90;;
16839;SDS011;8536;52.150;11.572;2022-11-15T00:29:55;17.27;;;10.83;;
16839;SDS011;8536;52.150;11.572;2022-11-15T00:32:22;16.40;;;11.07;;
16839;SDS011;8536;52.150;11.572;2022-11-15T00:34:48;16.60;;;11.43;;
16839;SDS011;8536;52.150;11.572;2022-11-15T00:37:15;15.77;;;10.97;;
16839;SDS011;8536;52.150;11.572;2022-11-15T00:39:41;16.00;;;11.43;;
16839;SDS011;8536;52.150;11.572;2022-11-15T00:42:08;14.77;;;10.53;;
16839;SDS011;8536;52.150;11.572;2022-11-15T00:44:34;16.77;;;11.23;;
16839;SDS011;8536;52.150;11.572;2022-11-15T00:47:00;14.83;;;10.63;;
16839;SDS011;8536;52.150;11.572;2022-11-15T00:49:27;14.00;;;10.27;;
16839;SDS011;8536;52.150;11.572;2022-11-15T00:51:53;14.73;;;11.03;;
16839;SDS011;8536;52.150;11.572;2022-11-15T00:54:20;15.07;;;10.90;;
16839;SDS011;8536;52.150;11.572;2022-11-15T00:56:46;15.37;;;11.10;;
16839;SDS011;8536;52.150;11.572;2022-11-15T00:59:13;14.37;;;10.60;;
16839;SDS011;8536;52.150;11.572;2022-11-15T01:01:39;14.97;;;11.53;;
16839;SDS011;8536;52.150;11.572;2022-11-15T01:04:05;13.23;;;9.80;;
16839;SDS011;8536;52.150;11.572;2022-11-15T01:06:32;13.20;;;10.60;;
16839;SDS011;8536;52.150;11.572;2022-11-15T01:08:58;14.90;;;10.73;;
16839;SDS011;8536;52.150;11.572;2022-11-15T01:11:25;13.80;;;10.20;;
16839;SDS011;8536;52.150;11.572;2022-11-15T01:13:51;14.63;;;10.10;;
16839;SDS011;8536;52.150;11.572;2022-11-15T01:16:18;15.53;;;11.27;;
16839;SDS011;8536;52.150;11.572;2022-11-15T01:18:45;13.10;;;10.20;;
16839;SDS011;8536;52.150;11.572;2022-11-15T01:21:13;14.03;;;10.60;;
16839;SDS011;8536;52.150;11.572;2022-11-15T01:23:41;15.17;;;11.20;;
16839;SDS011;8536;52.150;11.572;2022-11-15T01:26:09;14.53;;;10.87;;
16839;SDS011;8536;52.150;11.572;2022-11-15T01:28:38;13.83;;;10.40;;
16839;SDS011;8536;52.150;11.572;2022-11-15T01:31:07;15.20;;;10.53;;
16839;SDS011;8536;52.150;11.572;2022-11-15T01:33:37;15.32;;;11.55;;
16839;SDS011;8536;52.150;11.572;2022-11-15T01:36:04;14.40;;;10.20;;
16839;SDS011;8536;52.150;11.572;2022-11-15T01:38:31;17.17;;;10.80;;
16839;SDS011;8536;52.150;11.572;2022-11-15T01:40:58;13.63;;;9.63;;
16839;SDS011;8536;52.150;11.572;2022-11-15T01:43:29;14.43;;;10.90;;
16839;SDS011;8536;52.150;11.572;2022-11-15T01:45:58;14.80;;;10.70;;
16839;SDS011;8536;52.150;11.572;2022-11-15T01:48:31;14.83;;;10.27;;
16839;SDS011;8536;52.150;11.572;2022-11-15T01:50:59;15.15;;;11.15;;
16839;SDS011;8536;52.150;11.572;2022-11-15T01:53:27;15.03;;;11.30;;
16839;SDS011;8536;52.150;11.572;2022-11-15T01:55:55;15.90;;;10.20;;
16839;SDS011;8536;52.150;11.572;2022-11-15T01:58:22;14.13;;;10.63;;
16839;SDS011;8536;52.150;11.572;2022-11-15T02:00:48;15.40;;;10.77;;
16839;SDS011;8536;52.150;11.572;2022-11-15T02:03:16;16.07;;;11.23;;
16839;SDS011;8536;52.150;11.572;2022-11-15T02:05:42;14.10;;;10.57;;
16839;SDS011;8536;52.150;11.572;2022-11-15T02:08:09;15.90;;;11.50;;
16839;SDS011;8536;52.150;11.572;2022-11-15T02:10:46;15.07;;;11.10;;
16839;SDS011;8536;52.150;11.572;2022-11-15T02:13:14;14.53;;;10.17;;
16839;SDS011;8536;52.150;11.572;2022-11-15T02:15:46;14.70;;;11.00;;
16839;SDS011;8536;52.150;11.572;2022-11-15T02:18:34;14.57;;;10.37;;
16839;SDS011;8536;52.150;11.572;2022-11-15T02:34:47;14.03;;;10.53;;
16839;SDS011;8536;52.150;11.572;2022-11-15T02:37:23;15.60;;;11.17;;
16839;SDS011;8536;52.150;11.572;2022-11-15T02:40:17;13.93;;;10.03;;
16839;SDS011;8536;52.150;11.572;2022-11-15T02:42:55;15.93;;;10.90;;
16839;SDS011;8536;52.150;11.572;2022-11-15T02:45:44;15.03;;;11.13;;
16839;SDS011;8536;52.150;11.572;2022-11-15T02:48:14;16.07;;;10.70;;
16839;SDS011;8536;52.150;11.572;2022-11-15T02:50:42;13.30;;;10.23;;
16839;SDS011;8536;52.150;11.572;2022-11-15T02:53:08;16.37;;;11.53;;
16839;SDS011;8536;52.150;11.572;2022-11-15T02:55:40;13.90;;;10.30;;
16839;SDS011;8536;52.150;11.572;2022-11-15T03:01:16;15.13;;;10.73;;
16839;SDS011;8536;52.150;11.572;2022-11-15T03:03:59;14.33;;;10.07;;
16839;SDS011;8536;52.150;11.572;2022-11-15T03:06:51;14.43;;;10.77;;
16839;SDS011;8536;52.150;11.572;2022-11-15T03:12:13;15.37;;;10.67;;
16839;SDS011;8536;52.150;11.572;2022-11-15T03:17:32;14.00;;;10.70;;
16839;SDS011;8536;52.150;11.572;2022-11-15T03:20:03;14.30;;;10.43;;
16839;SDS011;8536;52.150;11.572;2022-11-15T03:22:33;14.77;;;9.73;;
16839;SDS011;8536;52.150;11.572;2022-11-15T03:25:04;15.13;;;10.13;;
16839;SDS011;8536;52.150;11.572;2022-11-15T03:27:35;13.47;;;10.87;;
16839;SDS011;8536;52.150;11.572;2022-11-15T03:30:05;14.67;;;10.47;;
16839;SDS011;8536;52.150;11.572;2022-11-15T03:32:44;13.47;;;10.63;;
16839;SDS011;8536;52.150;11.572;2022-11-15T03:35:22;14.33;;;10.30;;
16839;SDS011;8536;52.150;11.572;2022-11-15T03:40:45;13.63;;;9.87;;
16839;SDS011;8536;52.150;11.572;2022-11-15T03:45:58;13.97;;;9.83;;
16839;SDS011;8536;52.150;11.572;2022-11-15T03:48:29;13.67;;;10.17;;
16839;SDS011;8536;52.150;11.572;2022-11-15T03:51:03;15.10;;;9.67;;
16839;SDS011;8536;52.150;11.572;2022-11-15T03:53:30;15.10;;;9.80;;
16839;SDS011;8536;52.150;11.572;2022-11-15T03:55:58;14.97;;;10.30;;
16839;SDS011;8536;52.150;11.572;2022-11-15T03:58:24;12.97;;;9.73;;
16839;SDS011;8536;52.150;11.572;2022-11-15T04:00:51;15.80;;;9.70;;
16839;SDS011;8536;52.150;11.572;2022-11-15T04:03:17;14.10;;;9.67;;
16839;SDS011;8536;52.150;11.572;2022-11-15T04:05:44;13.70;;;9.60;;
16839;SDS011;8536;52.150;11.572;2022-11-15T04:08:10;14.40;;;9.07;;
16839;SDS011;8536;52.150;11.572;2022-11-15T04:10:37;15.10;;;9.97;;
16839;SDS011;8536;52.150;11.572;2022-11-15T04:13:03;13.07;;;9.37;;
16839;SDS011;8536;52.150;11.572;2022-11-15T04:15:30;13.37;;;9.50;;
16839;SDS011;8536;52.150;11.572;2022-11-15T04:17:56;15.80;;;9.87;;
16839;SDS011;8536;52.150;11.572;2022-11-15T04:20:24;16.10;;;10.77;;
16839;SDS011;8536;52.150;11.572;2022-11-15T04:23:12;12.67;;;9.73;;
16839;SDS011;8536;52.150;11.572;2022-11-15T04:26:00;15.00;;;9.60;;
16839;SDS011;8536;52.150;11.572;2022-11-15T04:28:28;15.73;;;9.57;;
16839;SDS011;8536;52.150;11.572;2022-11-15T04:30:54;13.13;;;9.67;;
16839;SDS011;8536;52.150;11.572;2022-11-15T04:33:21;15.33;;;9.93;;
16839;SDS011;8536;52.150;11.572;2022-11-15T04:35:47;14.60;;;10.53;;
16839;SDS011;8536;52.150;11.572;2022-11-15T04:38:34;13.47;;;9.90;;
16839;SDS011;8536;52.150;11.572;2022-11-15T04:41:01;14.83;;;10.50;;
16839;SDS011;8536;52.150;11.572;2022-11-15T04:43:28;14.70;;;9.70;;
16839;SDS011;8536;52.150;11.572;2022-11-15T04:45:55;14.00;;;10.10;;
16839;SDS011;8536;52.150;11.572;2022-11-15T04:48:22;13.00;;;9.57;;
16839;SDS011;8536;52.150;11.572;2022-11-15T04:50:48;11.40;;;8.70;;
16839;SDS011;8536;52.150;11.572;2022-11-15T04:53:15;13.73;;;9.97;;
16839;SDS011;8536;52.150;11.572;2022-11-15T04:55:44;14.23;;;10.00;;
16839;SDS011;8536;52.150;11.572;2022-11-15T04:58:11;12.30;;;9.27;;
16839;SDS011;8536;52.150;11.572;2022-11-15T05:00:37;16.43;;;10.17;;
16839;SDS011;8536;52.150;11.572;2022-11-15T05:03:05;15.40;;;9.90;;
16839;SDS011;8536;52.150;11.572;2022-11-15T05:05:50;15.00;;;9.23;;
16839;SDS011;8536;52.150;11.572;2022-11-15T05:08:17;15.17;;;10.03;;
16839;SDS011;8536;52.150;11.572;2022-11-15T05:10:43;12.80;;;9.03;;
16839;SDS011;8536;52.150;11.572;2022-11-15T05:13:10;12.20;;;8.93;;
16839;SDS011;8536;52.150;11.572;2022-11-15T05:15:36;13.00;;;9.53;;
16839;SDS011;8536;52.150;11.572;2022-11-15T05:18:03;14.93;;;9.80;;
16839;SDS011;8536;52.150;11.572;2022-11-15T05:20:29;13.00;;;9.33;;
16839;SDS011;8536;52.150;11.572;2022-11-15T05:22:55;13.10;;;9.10;;
16839;SDS011;8536;52.150;11.572;2022-11-15T05:25:22;14.90;;;9.57;;
16839;SDS011;8536;52.150;11.572;2022-11-15T05:27:49;14.03;;;9.60;;
16839;SDS011;8536;52.150;11.572;2022-11-15T05:30:15;12.87;;;9.83;;
16839;SDS011;8536;52.150;11.572;2022-11-15T05:32:42;13.10;;;9.73;;
16839;SDS011;8536;52.150;11.572;2022-11-15T05:35:11;15.77;;;10.20;;
16839;SDS011;8536;52.150;11.572;2022-11-15T05:37:41;14.83;;;9.77;;
16839;SDS011;8536;52.150;11.572;2022-11-15T05:40:08;12.47;;;9.20;;
16839;SDS011;8536;52.150;11.572;2022-11-15T05:42:34;14.83;;;10.37;;
16839;SDS011;8536;52.150;11.572;2022-11-15T05:45:04;12.90;;;9.57;;
16839;SDS011;8536;52.150;11.572;2022-11-15T05:47:32;15.57;;;10.10;;
16839;SDS011;8536;52.150;11.572;2022-11-15T05:50:00;14.20;;;9.80;;
16839;SDS011;8536;52.150;11.572;2022-11-15T05:52:27;15.00;;;9.07;;
16839;SDS011;8536;52.150;11.572;2022-11-15T05:54:56;13.60;;;9.50;;
16839;SDS011;8536;52.150;11.572;2022-11-15T05:57:24;12.53;;;9.13;;
16839;SDS011;8536;52.150;11.572;2022-11-15T05:59:50;12.00;;;9.10;;
16839;SDS011;8536;52.150;11.572;2022-11-15T06:02:17;10.87;;;8.47;;
16839;SDS011;8536;52.150;11.572;2022-11-15T06:04:43;13.57;;;9.40;;
16839;SDS011;8536;52.150;11.572;2022-11-15T06:07:10;11.47;;;8.50;;
16839;SDS011;8536;52.150;11.572;2022-11-15T06:09:36;12.33;;;8.90;;
16839;SDS011;8536;52.150;11.572;2022-11-15T06:12:03;11.70;;;9.00;;
16839;SDS011;8536;52.150;11.572;2022-11-15T06:14:30;9.83;;;7.53;;
16839;SDS011;8536;52.150;11.572;2022-11-15T06:16:56;10.90;;;8.10;;
16839;SDS011;8536;52.150;11.572;2022-11-15T06:19:22;12.50;;;8.77;;
16839;SDS011;8536;52.150;11.572;2022-11-15T06:21:49;12.57;;;8.63;;
16839;SDS011;8536;52.150;11.572;2022-11-15T06:24:15;11.33;;;7.13;;
16839;SDS011;8536;52.150;11.572;2022-11-15T06:26:42;11.63;;;8.63;;
16839;SDS011;8536;52.150;11.572;2022-11-15T06:29:08;12.03;;;8.63;;
16839;SDS011;8536;52.150;11.572;2022-11-15T06:31:35;12.80;;;8.10;;
16839;SDS011;8536;52.150;11.572;2022-11-15T06:34:01;11.00;;;7.93;;
16839;SDS011;8536;52.150;11.572;2022-11-15T06:36:28;12.83;;;8.20;;
16839;SDS011;8536;52.150;11.572;2022-11-15T06:38:54;10.53;;;8.47;;
16839;SDS011;8536;52.150;11.572;2022-11-15T06:41:20;11.80;;;7.90;;
16839;SDS011;8536;52.150;11.572;2022-11-15T06:43:47;10.43;;;8.50;;
16839;SDS011;8536;52.150;11.572;2022-11-15T06:46:13;11.27;;;7.97;;
16839;SDS011;8536;52.150;11.572;2022-11-15T06:48:41;9.93;;;7.70;;
16839;SDS011;8536;52.150;11.572;2022-11-15T06:51:08;10.10;;;8.00;;
16839;SDS011;8536;52.150;11.572;2022-11-15T06:53:34;9.97;;;7.43;;
16839;SDS011;8536;52.150;11.572;2022-11-15T06:56:01;11.47;;;8.43;;
16839;SDS011;8536;52.150;11.572;2022-11-15T06:58:29;12.43;;;7.90;;
16839;SDS011;8536;52.150;11.572;2022-11-15T07:01:14;12.27;;;7.70;;
16839;SDS011;8536;52.150;11.572;2022-11-15T07:03:41;10.73;;;7.87;;
16839;SDS011;8536;52.150;11.572;2022-11-15T07:06:08;10.53;;;8.57;;
16839;SDS011;8536;52.150;11.572;2022-11-15T07:08:35;10.77;;;7.80;;
16839;SDS011;8536;52.150;11.572;2022-11-15T07:11:06;10.07;;;8.23;;
16839;SDS011;8536;52.150;11.572;2022-11-15T07:13:34;12.13;;;8.40;;
16839;SDS011;8536;52.150;11.572;2022-11-15T07:16:06;10.47;;;7.93;;
16839;SDS011;8536;52.150;11.572;2022-11-15T07:18:34;9.67;;;6.90;;
16839;SDS011;8536;52.150;11.572;2022-11-15T07:21:02;11.27;;;7.50;;
16839;SDS011;8536;52.150;11.572;2022-11-15T07:23:30;10.13;;;7.20;;
16839;SDS011;8536;52.150;11.572;2022-11-15T07:25:57;10.03;;;7.87;;
16839;SDS011;8536;52.150;11.572;2022-11-15T07:28:25;9.83;;;7.70;;
16839;SDS011;8536;52.150;11.572;2022-11-15T07:30:52;10.43;;;8.27;;
16839;SDS011;8536;52.150;11.572;2022-11-15T07:33:19;9.93;;;7.47;;
16839;SDS011;8536;52.150;11.572;2022-11-15T07:35:45;8.30;;;7.03;;
16839;SDS011;8536;52.150;11.572;2022-11-15T07:38:15;10.00;;;7.97;;
16839;SDS011;8536;52.150;11.572;2022-11-15T07:40:42;11.03;;;7.97;;
16839;SDS011;8536;52.150;11.572;2022-11-15T07:43:08;11.50;;;8.20;;
16839;SDS011;8536;52.150;11.572;2022-11-15T07:45:39;11.53;;;7.47;;
16839;SDS011;8536;52.150;11.572;2022-11-15T07:48:06;11.23;;;8.02;;
16839;SDS011;8536;52.150;11.572;2022-11-15T07:50:33;11.70;;;8.23;;
16839;SDS011;8536;52.150;11.572;2022-11-15T07:52:59;14.18;;;8.35;;
16839;SDS011;8536;52.150;11.572;2022-11-15T07:55:26;11.38;;;8.25;;
16839;SDS011;8536;52.150;11.572;2022-11-15T07:58:05;12.63;;;9.20;;
16839;SDS011;8536;52.150;11.572;2022-11-15T08:00:35;11.25;;;8.60;;
16839;SDS011;8536;52.150;11.572;2022-11-15T08:03:11;11.88;;;8.27;;
16839;SDS011;8536;52.150;11.572;2022-11-15T08:05:40;11.73;;;8.38;;
16839;SDS011;8536;52.150;11.572;2022-11-15T08:08:08;11.10;;;8.52;;
16839;SDS011;8536;52.150;11.572;2022-11-15T08:10:36;13.23;;;8.68;;
16839;SDS011;8536;52.150;11.572;2022-11-15T08:13:06;13.40;;;8.70;;
16839;SDS011;8536;52.150;11.572;2022-11-15T08:15:35;13.20;;;9.60;;
16839;SDS011;8536;52.150;11.572;2022-11-15T08:18:05;14.93;;;9.30;;
16839;SDS011;8536;52.150;11.572;2022-11-15T08:20:33;14.18;;;8.85;;
16839;SDS011;8536;52.150;11.572;2022-11-15T08:23:00;14.13;;;10.02;;
16839;SDS011;8536;52.150;11.572;2022-11-15T08:25:28;15.40;;;9.32;;
16839;SDS011;8536;52.150;11.572;2022-11-15T08:27:56;13.45;;;9.73;;
16839;SDS011;8536;52.150;11.572;2022-11-15T08:30:24;11.68;;;8.98;;
16839;SDS011;8536;52.150;11.572;2022-11-15T08:32:51;14.30;;;9.95;;
16839;SDS011;8536;52.150;11.572;2022-11-15T08:35:19;13.82;;;8.98;;
16839;SDS011;8536;52.150;11.572;2022-11-15T08:37:53;11.38;;;8.38;;
16839;SDS011;8536;52.150;11.572;2022-11-15T08:40:20;13.27;;;9.30;;
16839;SDS011;8536;52.150;11.572;2022-11-15T08:42:47;14.32;;;9.85;;
16839;SDS011;8536;52.150;11.572;2022-11-15T08:45:14;12.68;;;9.13;;
16839;SDS011;8536;52.150;11.572;2022-11-15T08:47:40;12.20;;;8.95;;
16839;SDS011;8536;52.150;11.572;2022-11-15T08:50:07;12.45;;;9.85;;
16839;SDS011;8536;52.150;11.572;2022-11-15T08:52:34;13.15;;;9.23;;
16839;SDS011;8536;52.150;11.572;2022-11-15T08:55:00;11.30;;;8.80;;
16839;SDS011;8536;52.150;11.572;2022-11-15T08:57:30;14.77;;;9.30;;
16839;SDS011;8536;52.150;11.572;2022-11-15T08:59:56;11.88;;;8.13;;
16839;SDS011;8536;52.150;11.572;2022-11-15T09:02:23;12.38;;;9.13;;
16839;SDS011;8536;52.150;11.572;2022-11-15T09:04:50;13.43;;;8.57;;
16839;SDS011;8536;52.150;11.572;2022-11-15T09:07:16;14.18;;;8.95;;
16839;SDS011;8536;52.150;11.572;2022-11-15T09:09:43;13.32;;;9.32;;
16839;SDS011;8536;52.150;11.572;2022-11-15T09:12:09;10.85;;;8.45;;
16839;SDS011;8536;52.150;11.572;2022-11-15T09:14:35;11.35;;;8.40;;
16839;SDS011;8536;52.150;11.572;2022-11-15T09:17:02;9.40;;;7.55;;
16839;SDS011;8536;52.150;11.572;2022-11-15T09:19:29;11.05;;;8.00;;
16839;SDS011;8536;52.150;11.572;2022-11-15T09:21:55;9.85;;;7.47;;
16839;SDS011;8536;52.150;11.572;2022-11-15T09:24:22;12.80;;;8.27;;
16839;SDS011;8536;52.150;11.572;2022-11-15T09:26:49;11.38;;;7.93;;
16839;SDS011;8536;52.150;11.572;2022-11-15T09:29:17;12.07;;;8.05;;
16839;SDS011;8536;52.150;11.572;2022-11-15T09:31:43;11.07;;;7.60;;
16839;SDS011;8536;52.150;11.572;2022-11-15T09:34:10;9.85;;;7.47;;
16839;SDS011;8536;52.150;11.572;2022-11-15T09:36:37;10.68;;;7.32;;
16839;SDS011;8536;52.150;11.572;2022-11-15T09:39:05;10.82;;;7.47;;
16839;SDS011;8536;52.150;11.572;2022-11-15T09:49:52;8.98;;;6.43;;
16839;SDS011;8536;52.150;11.572;2022-11-15T09:52:23;9.38;;;6.82;;
16839;SDS011;8536;52.150;11.572;2022-11-15T09:54:50;6.72;;;6.00;;
16839;SDS011;8536;52.150;11.572;2022-11-15T10:06:03;9.32;;;6.78;;
16839;SDS011;8536;52.150;11.572;2022-11-15T10:08:42;7.47;;;5.90;;
16839;SDS011;8536;52.150;11.572;2022-11-15T10:11:22;9.18;;;6.22;;
16839;SDS011;8536;52.150;11.572;2022-11-15T10:14:13;8.50;;;5.95;;
16839;SDS011;8536;52.150;11.572;2022-11-15T10:16:49;9.18;;;6.25;;
16839;SDS011;8536;52.150;11.572;2022-11-15T10:19:28;7.18;;;5.80;;
16839;SDS011;8536;52.150;11.572;2022-11-15T10:24:37;7.70;;;5.97;;
16839;SDS011;8536;52.150;11.572;2022-11-15T10:27:12;8.75;;;6.07;;
16839;SDS011;8536;52.150;11.572;2022-11-15T10:29:44;7.95;;;5.72;;
16839;SDS011;8536;52.150;11.572;2022-11-15T10:32:11;7.50;;;6.10;;
16839;SDS011;8536;52.150;11.572;2022-11-15T10:34:39;8.15;;;5.95;;
16839;SDS011;8536;52.150;11.572;2022-11-15T10:37:05;8.27;;;6.35;;
16839;SDS011;8536;52.150;11.572;2022-11-15T10:39:32;9.60;;;6.22;;
16839;SDS011;8536;52.150;11.572;2022-11-15T10:42:15;7.85;;;6.40;;
16839;SDS011;8536;52.150;11.572;2022-11-15T10:44:52;10.15;;;7.22;;
16839;SDS011;8536;52.150;11.572;2022-11-15T10:47:23;10.15;;;7.55;;
16839;SDS011;8536;52.150;11.572;2022-11-15T10:49:55;9.75;;;6.30;;
16839;SDS011;8536;52.150;11.572;2022-11-15T10:52:30;11.05;;;6.65;;
16839;SDS011;8536;52.150;11.572;2022-11-15T10:55:40;8.25;;;6.80;;
16839;SDS011;8536;52.150;11.572;2022-11-15T10:57:50;8.80;;;6.55;;
16839;SDS011;8536;52.150;11.572;2022-11-15T11:05:34;10.65;;;5.63;;
16839;SDS011;8536;52.150;11.572;2022-11-15T11:10:37;7.68;;;5.82;;
16839;SDS011;8536;52.150;11.572;2022-11-15T11:13:22;6.13;;;4.95;;
16839;SDS011;8536;52.150;11.572;2022-11-15T11:18:37;6.88;;;5.65;;
16839;SDS011;8536;52.150;11.572;2022-11-15T11:21:10;7.25;;;5.30;;
16839;SDS011;8536;52.150;11.572;2022-11-15T11:23:54;6.07;;;5.22;;
16839;SDS011;8536;52.150;11.572;2022-11-15T11:40:43;7.10;;;5.55;;
16839;SDS011;8536;52.150;11.572;2022-11-15T11:48:21;10.02;;;5.65;;
16839;SDS011;8536;52.150;11.572;2022-11-15T11:50:50;9.43;;;5.32;;
16839;SDS011;8536;52.150;11.572;2022-11-15T11:55:53;5.75;;;5.00;;
16839;SDS011;8536;52.150;11.572;2022-11-15T11:58:22;9.13;;;5.13;;
16839;SDS011;8536;52.150;11.572;2022-11-15T12:03:46;7.35;;;5.85;;
16839;SDS011;8536;52.150;11.572;2022-11-15T12:06:19;6.55;;;5.43;;
16839;SDS011;8536;52.150;11.572;2022-11-15T12:17:10;6.65;;;5.35;;
16839;SDS011;8536;52.150;11.572;2022-11-15T12:19:38;6.80;;;5.03;;
16839;SDS011;8536;52.150;11.572;2022-11-15T12:22:08;7.85;;;5.65;;
16839;SDS011;8536;52.150;11.572;2022-11-15T12:24:43;8.48;;;6.22;;
16839;SDS011;8536;52.150;11.572;2022-11-15T12:29:53;7.72;;;5.80;;
16839;SDS011;8536;52.150;11.572;2022-11-15T12:34:54;6.85;;;4.93;;
16839;SDS011;8536;52.150;11.572;2022-11-15T12:42:40;7.00;;;4.95;;
16839;SDS011;8536;52.150;11.572;2022-11-15T12:47:57;10.60;;;5.35;;
16839;SDS011;8536;52.150;11.572;2022-11-15T12:50:58;7.32;;;4.88;;
16839;SDS011;8536;52.150;11.572;2022-11-15T12:53:27;6.88;;;4.75;;
16839;SDS011;8536;52.150;11.572;2022-11-15T13:04:23;7.32;;;4.68;;
16839;SDS011;8536;52.150;11.572;2022-11-15T13:07:05;5.82;;;5.05;;
16839;SDS011;8536;52.150;11.572;2022-11-15T13:22:44;4.80;;;4.18;;
16839;SDS011;8536;52.150;11.572;2022-11-15T13:28:18;5.75;;;4.95;;
16839;SDS011;8536;52.150;11.572;2022-11-15T13:36:21;6.38;;;4.65;;
16839;SDS011;8536;52.150;11.572;2022-11-15T13:39:03;7.93;;;5.18;;
16839;SDS011;8536;52.150;11.572;2022-11-15T13:41:47;4.28;;;3.60;;
16839;SDS011;8536;52.150;11.572;2022-11-15T13:44:22;9.50;;;4.70;;
16839;SDS011;8536;52.150;11.572;2022-11-15T13:47:09;7.55;;;4.50;;
16839;SDS011;8536;52.150;11.572;2022-11-15T13:49:39;5.40;;;4.78;;
16839;SDS011;8536;52.150;11.572;2022-11-15T13:52:07;5.85;;;4.55;;
16839;SDS011;8536;52.150;11.572;2022-11-15T13:55:22;7.05;;;4.97;;
16839;SDS011;8536;52.150;11.572;2022-11-15T13:57:35;6.78;;;4.57;;
16839;SDS011;8536;52.150;11.572;2022-11-15T14:00:26;6.32;;;4.65;;
16839;SDS011;8536;52.150;11.572;2022-11-15T14:03:21;4.25;;;3.80;;
16839;SDS011;8536;52.150;11.572;2022-11-15T14:08:42;4.88;;;3.90;;
16839;SDS011;8536;52.150;11.572;2022-11-15T14:11:24;7.63;;;4.57;;
16839;SDS011;8536;52.150;11.572;2022-11-15T14:16:36;6.68;;;4.38;;
16839;SDS011;8536;52.150;11.572;2022-11-15T14:19:11;5.32;;;4.30;;
16839;SDS011;8536;52.150;11.572;2022-11-15T14:22:13;6.72;;;4.20;;
16839;SDS011;8536;52.150;11.572;2022-11-15T14:27:32;6.50;;;4.53;;
16839;SDS011;8536;52.150;11.572;2022-11-15T14:29:59;5.93;;;4.22;;
16839;SDS011;8536;52.150;11.572;2022-11-15T14:32:26;5.45;;;4.47;;
16839;SDS011;8536;52.150;11.572;2022-11-15T14:35:03;5.30;;;4.47;;
16839;SDS011;8536;52.150;11.572;2022-11-15T14:37:30;7.03;;;4.22;;
16839;SDS011;8536;52.150;11.572;2022-11-15T14:40:03;6.85;;;4.15;;
16839;SDS011;8536;52.150;11.572;2022-11-15T14:42:31;3.92;;;3.53;;
16839;SDS011;8536;52.150;11.572;2022-11-15T14:44:58;6.10;;;4.05;;
16839;SDS011;8536;52.150;11.572;2022-11-15T14:47:24;4.95;;;4.45;;
16839;SDS011;8536;52.150;11.572;2022-11-15T14:49:51;5.32;;;3.53;;
16839;SDS011;8536;52.150;11.572;2022-11-15T14:52:27;5.07;;;4.05;;
16839;SDS011;8536;52.150;11.572;2022-11-15T14:54:58;5.55;;;3.53;;
16839;SDS011;8536;52.150;11.572;2022-11-15T14:57:25;5.38;;;3.97;;
16839;SDS011;8536;52.150;11.572;2022-11-15T14:59:52;5.50;;;4.65;;
16839;SDS011;8536;52.150;11.572;2022-11-15T15:02:23;4.25;;;3.60;;
16839;SDS011;8536;52.150;11.572;2022-11-15T15:04:51;5.68;;;4.13;;
16839;SDS011;8536;52.150;11.572;2022-11-15T15:07:17;5.72;;;3.97;;
16839;SDS011;8536;52.150;11.572;2022-11-15T15:09:44;5.78;;;4.00;;
16839;SDS011;8536;52.150;11.572;2022-11-15T15:12:15;5.10;;;3.55;;
16839;SDS011;8536;52.150;11.572;2022-11-15T15:14:43;4.45;;;3.90;;
16839;SDS011;8536;52.150;11.572;2022-11-15T15:17:10;4.03;;;3.63;;
16839;SDS011;8536;52.150;11.572;2022-11-15T15:19:36;5.60;;;3.55;;
16839;SDS011;8536;52.150;11.572;2022-11-15T15:22:03;5.30;;;3.85;;
16839;SDS011;8536;52.150;11.572;2022-11-15T15:24:29;5.38;;;4.10;;
16839;SDS011;8536;52.150;11.572;2022-11-15T15:26:56;7.63;;;3.88;;
16839;SDS011;8536;52.150;11.572;2022-11-15T15:29:22;6.05;;;3.97;;
16839;SDS011;8536;52.150;11.572;2022-11-15T15:31:48;4.88;;;3.65;;
16839;SDS011;8536;52.150;11.572;2022-11-15T15:34:15;5.88;;;3.70;;
16839;SDS011;8536;52.150;11.572;2022-11-15T15:36:42;5.30;;;3.63;;
16839;SDS011;8536;52.150;11.572;2022-11-15T15:39:09;6.00;;;3.58;;
16839;SDS011;8536;52.150;11.572;2022-11-15T15:41:37;5.10;;;3.40;;
16839;SDS011;8536;52.150;11.572;2022-11-15T15:44:03;4.50;;;3.25;;
16839;SDS011;8536;52.150;11.572;2022-11-15T15:46:30;4.40;;;3.80;;
16839;SDS011;8536;52.150;11.572;2022-11-15T15:48:56;5.45;;;3.80;;
16839;SDS011;8536;52.150;11.572;2022-11-15T15:51:22;5.40;;;3.40;;
16839;SDS011;8536;52.150;11.572;2022-11-15T15:53:49;5.68;;;3.58;;
16839;SDS011;8536;52.150;11.572;2022-11-15T15:56:17;4.38;;;3.72;;
16839;SDS011;8536;52.150;11.572;2022-11-15T15:58:43;5.88;;;3.50;;
16839;SDS011;8536;52.150;11.572;2022-11-15T16:01:10;5.40;;;3.88;;
16839;SDS011;8536;52.150;11.572;2022-11-15T16:03:36;5.22;;;4.00;;
16839;SDS011;8536;52.150;11.572;2022-11-15T16:06:03;6.40;;;3.90;;
16839;SDS011;8536;52.150;11.572;2022-11-15T16:08:31;4.22;;;3.80;;
16839;SDS011;8536;52.150;11.572;2022-11-15T16:11:17;5.85;;;3.85;;
16839;SDS011;8536;52.150;11.572;2022-11-15T16:13:43;5.95;;;4.25;;
16839;SDS011;8536;52.150;11.572;2022-11-15T16:16:12;5.20;;;4.35;;
16839;SDS011;8536;52.150;11.572;2022-11-15T16:18:39;5.80;;;4.32;;
16839;SDS011;8536;52.150;11.572;2022-11-15T16:21:07;4.68;;;3.70;;
16839;SDS011;8536;52.150;11.572;2022-11-15T16:23:34;5.65;;;4.30;;
16839;SDS011;8536;52.150;11.572;2022-11-15T16:26:00;4.97;;;4.00;;
16839;SDS011;8536;52.150;11.572;2022-11-15T16:28:29;5.45;;;3.95;;
16839;SDS011;8536;52.150;11.572;2022-11-15T16:30:59;7.18;;;4.47;;
16839;SDS011;8536;52.150;11.572;2022-11-15T16:33:30;6.25;;;4.55;;
16839;SDS011;8536;52.150;11.572;2022-11-15T16:35:58;5.95;;;4.47;;
16839;SDS011;8536;52.150;11.572;2022-11-15T16:38:24;6.55;;;5.00;;
16839;SDS011;8536;52.150;11.572;2022-11-15T16:40:51;5.97;;;4.32;;
16839;SDS011;8536;52.150;11.572;2022-11-15T16:43:17;6.30;;;4.70;;
16839;SDS011;8536;52.150;11.572;2022-11-15T16:45:44;7.30;;;4.90;;
16839;SDS011;8536;52.150;11.572;2022-11-15T16:48:19;5.90;;;4.68;;
16839;SDS011;8536;52.150;11.572;2022-11-15T16:50:48;6.22;;;5.07;;
16839;SDS011;8536;52.150;11.572;2022-11-15T16:53:14;6.55;;;4.70;;
16839;SDS011;8536;52.150;11.572;2022-11-15T16:55:41;7.63;;;4.70;;
16839;SDS011;8536;52.150;11.572;2022-11-15T16:58:08;6.38;;;4.55;;
16839;SDS011;8536;52.150;11.572;2022-11-15T17:00:35;7.47;;;4.72;;
16839;SDS011;8536;52.150;11.572;2022-11-15T17:03:03;6.28;;;4.45;;
16839;SDS011;8536;52.150;11.572;2022-11-15T17:05:29;6.35;;;4.90;;
16839;SDS011;8536;52.150;11.572;2022-11-15T17:07:57;7.13;;;5.00;;
16839;SDS011;8536;52.150;11.572;2022-11-15T17:10:25;7.63;;;5.45;;
16839;SDS011;8536;52.150;11.572;2022-11-15T17:12:54;6.82;;;4.88;;